createdAt,value
2022-08-25T00:02:04.721Z,14.80
2022-08-25T00:04:35.229Z,14.80
2022-08-25T00:07:07.156Z,16.30
2022-08-25T00:09:35.709Z,15.10
2022-08-25T00:12:05.883Z,15.90
2022-08-25T00:14:36.970Z,15.50
2022-08-25T00:17:06.836Z,16.30
2022-08-25T00:19:38.475Z,14.90
2022-08-25T00:22:07.860Z,15.50
2022-08-25T00:24:36.189Z,15.00
2022-08-25T00:27:04.603Z,15.90
2022-08-25T00:29:33.333Z,17.10
2022-08-25T00:32:03.563Z,17.30
2022-08-25T00:34:39.506Z,16.50
2022-08-25T00:37:09.649Z,16.30
2022-08-25T00:39:40.095Z,15.60
2022-08-25T00:42:11.794Z,16.70
2022-08-25T00:44:45.118Z,17.50
2022-08-25T00:47:13.373Z,15.50
2022-08-25T00:49:55.358Z,16.20
2022-08-25T00:55:03.140Z,16.00
2022-08-25T00:57:41.472Z,16.80
2022-08-25T01:00:26.241Z,17.50
2022-08-25T01:02:57.567Z,16.00
2022-08-25T01:05:27.086Z,16.40
2022-08-25T01:07:58.722Z,15.90
2022-08-25T01:10:29.127Z,15.40
2022-08-25T01:13:02.767Z,15.10
2022-08-25T01:15:32.730Z,16.50
2022-08-25T01:18:01.149Z,15.20
2022-08-25T01:20:32.636Z,16.40
2022-08-25T01:23:03.006Z,16.30
2022-08-25T01:25:49.921Z,16.90
2022-08-25T01:28:18.723Z,15.60
2022-08-25T01:30:46.986Z,15.80
2022-08-25T01:33:18.361Z,16.50
2022-08-25T01:35:47.260Z,16.20
2022-08-25T01:38:17.875Z,15.20
2022-08-25T01:40:45.953Z,15.40
2022-08-25T01:43:18.451Z,15.60
2022-08-25T01:45:48.216Z,16.50
2022-08-25T01:48:17.127Z,15.10
2022-08-25T01:50:45.312Z,15.30
2022-08-25T01:53:29.561Z,16.80
2022-08-25T01:56:15.764Z,15.40
2022-08-25T01:58:46.988Z,15.20
2022-08-25T02:01:18.963Z,15.70
2022-08-25T02:03:53.101Z,15.80
2022-08-25T02:06:28.808Z,15.80
2022-08-25T02:09:04.652Z,15.80
2022-08-25T02:11:37.147Z,14.50
2022-08-25T02:14:05.911Z,15.30
2022-08-25T02:16:37.090Z,16.50
2022-08-25T02:19:09.543Z,14.80
2022-08-25T02:21:38.284Z,15.10
2022-08-25T02:24:07.432Z,16.20
2022-08-25T02:26:37.262Z,16.10
2022-08-25T02:29:07.785Z,15.80
2022-08-25T02:31:39.319Z,16.70
2022-08-25T02:34:08.900Z,16.20
2022-08-25T02:36:38.491Z,15.70
2022-08-25T02:39:08.970Z,15.10
2022-08-25T02:41:38.929Z,15.50
2022-08-25T02:44:08.054Z,14.70
2022-08-25T02:46:39.404Z,14.10
2022-08-25T02:49:08.003Z,15.20
2022-08-25T02:51:36.627Z,15.70
2022-08-25T02:54:05.536Z,16.50
2022-08-25T02:56:33.954Z,16.80
2022-08-25T02:59:02.939Z,15.00
2022-08-25T03:01:32.730Z,15.50
2022-08-25T03:04:01.960Z,13.80
2022-08-25T03:06:30.620Z,13.50
2022-08-25T03:08:59.251Z,15.00
2022-08-25T03:11:28.448Z,13.90
2022-08-25T03:13:56.697Z,15.10
2022-08-25T03:16:28.165Z,15.10
2022-08-25T03:18:56.871Z,14.60
2022-08-25T03:21:26.919Z,14.20
2022-08-25T03:23:56.353Z,13.70
2022-08-25T03:26:43.130Z,13.10
2022-08-25T03:29:11.262Z,13.70
2022-08-25T03:31:39.449Z,13.40
2022-08-25T03:34:07.541Z,13.80
2022-08-25T03:36:35.756Z,13.40
2022-08-25T03:39:04.542Z,13.20
2022-08-25T03:41:33.651Z,13.20
2022-08-25T03:44:04.093Z,12.90
2022-08-25T03:46:35.479Z,14.20
2022-08-25T03:49:04.917Z,13.50
2022-08-25T03:51:37.301Z,13.50
2022-08-25T03:54:05.431Z,14.70
2022-08-25T03:56:34.095Z,15.00
2022-08-25T03:59:02.603Z,15.10
2022-08-25T04:01:30.657Z,14.40
2022-08-25T04:03:58.926Z,14.90
2022-08-25T04:06:27.110Z,15.10
2022-08-25T04:08:58.389Z,15.30
2022-08-25T04:11:27.382Z,15.60
2022-08-25T04:13:59.154Z,14.40
2022-08-25T04:16:31.595Z,13.30
2022-08-25T04:19:02.358Z,14.60
2022-08-25T04:21:32.012Z,14.50
2022-08-25T04:23:59.949Z,14.20
2022-08-25T04:26:34.683Z,15.20
2022-08-25T04:29:07.160Z,14.60
2022-08-25T04:31:39.512Z,14.70
2022-08-25T04:34:24.734Z,14.60
2022-08-25T04:36:56.072Z,13.70
2022-08-25T04:39:24.012Z,15.80
2022-08-25T04:41:52.119Z,16.10
2022-08-25T04:44:21.621Z,15.90
2022-08-25T04:46:50.042Z,15.70
2022-08-25T04:49:18.240Z,15.70
2022-08-25T04:51:47.160Z,16.10
2022-08-25T04:54:21.822Z,15.00
2022-08-25T04:56:54.500Z,16.10
2022-08-25T04:59:29.490Z,16.50
2022-08-25T05:02:04.506Z,16.80
2022-08-25T05:04:36.424Z,17.90
2022-08-25T05:07:04.938Z,18.20
2022-08-25T05:09:33.558Z,16.30
2022-08-25T05:12:10.534Z,17.50
2022-08-25T05:14:54.710Z,17.30
2022-08-25T05:17:23.993Z,17.50
2022-08-25T05:19:52.184Z,16.70
2022-08-25T05:22:20.306Z,17.30
2022-08-25T05:24:48.545Z,17.90
2022-08-25T05:27:17.213Z,18.50
2022-08-25T05:29:45.280Z,17.30
2022-08-25T05:32:13.339Z,17.30
2022-08-25T05:34:41.937Z,16.90
2022-08-25T05:37:12.146Z,15.90
2022-08-25T05:39:40.548Z,17.90
2022-08-25T05:42:08.488Z,17.20
2022-08-25T05:44:38.516Z,19.00
2022-08-25T05:47:07.744Z,17.90
2022-08-25T05:49:35.890Z,17.60
2022-08-25T05:52:04.360Z,16.40
2022-08-25T05:54:33.700Z,17.60
2022-08-25T05:57:01.681Z,17.00
2022-08-25T05:59:30.443Z,17.60
2022-08-25T06:02:17.586Z,17.90
2022-08-25T06:04:46.943Z,17.60
2022-08-25T06:07:14.939Z,16.80
2022-08-25T06:09:46.546Z,16.50
2022-08-25T06:12:15.151Z,17.00
2022-08-25T06:14:44.590Z,17.20
2022-08-25T06:17:14.645Z,15.60
2022-08-25T06:19:46.238Z,14.60
2022-08-25T06:22:14.253Z,15.90
2022-08-25T06:24:42.813Z,17.10
2022-08-25T06:27:13.322Z,15.80
2022-08-25T06:29:42.297Z,17.30
2022-08-25T06:32:10.605Z,15.40
2022-08-25T06:34:41.749Z,16.20
2022-08-25T06:37:09.811Z,17.30
2022-08-25T06:39:37.975Z,17.00
2022-08-25T06:42:06.196Z,18.10
2022-08-25T06:44:35.147Z,16.50
2022-08-25T06:47:03.260Z,16.10
2022-08-25T06:49:36.002Z,15.40
2022-08-25T06:52:04.789Z,16.80
2022-08-25T06:54:33.264Z,17.30
2022-08-25T06:57:01.741Z,15.70
2022-08-25T06:59:32.207Z,16.20
2022-08-25T07:04:33.148Z,16.10
2022-08-25T07:07:04.860Z,16.10
2022-08-25T07:09:37.411Z,14.40
2022-08-25T07:12:10.001Z,14.30
2022-08-25T07:14:38.600Z,13.10
2022-08-25T07:17:12.619Z,16.90
2022-08-25T07:19:43.058Z,14.40
2022-08-25T07:22:12.044Z,15.50
2022-08-25T07:24:40.094Z,13.70
2022-08-25T07:27:08.185Z,14.40
2022-08-25T07:29:42.343Z,15.70
2022-08-25T07:32:10.983Z,12.60
2022-08-25T07:34:59.209Z,16.60
2022-08-25T07:40:38.373Z,13.40
2022-08-25T07:43:13.170Z,15.20
2022-08-25T07:45:49.550Z,15.10
2022-08-25T07:48:20.097Z,14.80
2022-08-25T07:50:49.505Z,15.70
2022-08-25T07:53:18.086Z,14.80
2022-08-25T07:55:47.377Z,13.80
2022-08-25T07:58:15.757Z,15.10
2022-08-25T08:00:48.058Z,14.60
2022-08-25T08:03:35.158Z,14.60
2022-08-25T08:06:09.691Z,14.40
2022-08-25T08:08:44.110Z,12.50
2022-08-25T08:11:21.493Z,13.60
2022-08-25T08:13:55.014Z,14.30
2022-08-25T08:16:30.386Z,14.50
2022-08-25T08:18:59.651Z,15.90
2022-08-25T08:21:32.648Z,14.90
2022-08-25T08:24:05.038Z,15.20
2022-08-25T08:26:57.686Z,13.90
2022-08-25T08:29:28.230Z,16.40
2022-08-25T08:31:56.860Z,14.50
2022-08-25T08:34:25.189Z,15.50
2022-08-25T08:36:57.824Z,13.80
2022-08-25T08:39:27.684Z,14.30
2022-08-25T08:42:19.926Z,16.30
2022-08-25T08:45:46.407Z,15.70
2022-08-25T08:49:19.688Z,14.50
2022-08-25T08:52:09.398Z,15.90
2022-08-25T08:54:41.159Z,14.70
2022-08-25T09:03:09.348Z,17.30
2022-08-25T09:05:50.420Z,14.70
2022-08-25T09:08:20.498Z,15.40
2022-08-25T09:11:01.575Z,18.60
2022-08-25T09:13:36.938Z,17.00
2022-08-25T09:16:34.945Z,15.80
2022-08-25T09:19:23.383Z,15.40
2022-08-25T09:22:33.668Z,12.70
2022-08-25T09:25:53.041Z,15.50
2022-08-25T09:28:39.810Z,14.70
2022-08-25T09:31:29.849Z,16.00
2022-08-25T09:34:01.108Z,14.90
2022-08-25T09:36:35.562Z,14.00
2022-08-25T09:39:06.841Z,15.00
2022-08-25T09:41:51.133Z,13.70
2022-08-25T09:44:26.229Z,16.30
2022-08-25T09:47:17.930Z,16.20
2022-08-25T09:50:00.259Z,17.40
2022-08-25T09:52:28.796Z,16.00
2022-08-25T09:54:59.723Z,15.40
2022-08-25T09:57:44.439Z,14.70
2022-08-25T10:00:21.558Z,14.50
2022-08-25T10:03:07.870Z,15.10
2022-08-25T10:05:41.470Z,15.50
2022-08-25T10:08:24.813Z,13.90
2022-08-25T10:10:57.574Z,14.80
2022-08-25T10:13:36.682Z,15.30
2022-08-25T10:16:34.574Z,14.30
2022-08-25T10:19:28.699Z,15.50
2022-08-25T10:22:10.902Z,15.00
2022-08-25T10:24:43.890Z,15.10
2022-08-25T10:27:30.677Z,15.00
2022-08-25T10:30:20.258Z,15.00
2022-08-25T10:33:33.118Z,14.50
2022-08-25T10:36:10.700Z,13.50
2022-08-25T10:38:58.822Z,15.20
2022-08-25T10:41:38.227Z,13.50
2022-08-25T10:44:36.866Z,13.40
2022-08-25T10:47:23.360Z,13.20
2022-08-25T10:49:56.240Z,12.10
2022-08-25T10:52:48.834Z,13.00
2022-08-25T10:55:20.859Z,12.90
2022-08-25T10:57:52.645Z,13.20
2022-08-25T11:00:23.651Z,12.70
2022-08-25T11:03:08.435Z,13.80
2022-08-25T11:06:05.747Z,12.30
2022-08-25T11:08:58.700Z,13.50
2022-08-25T11:12:00.021Z,12.70
2022-08-25T11:17:10.240Z,12.30
2022-08-25T11:19:42.169Z,12.90
2022-08-25T11:22:22.477Z,13.40
2022-08-25T11:24:59.763Z,12.50
2022-08-25T11:27:59.921Z,13.40
2022-08-25T11:30:28.989Z,12.50
2022-08-25T11:32:57.135Z,12.80
2022-08-25T11:35:40.899Z,12.10
2022-08-25T11:38:37.850Z,12.60
2022-08-25T11:41:21.717Z,12.70
2022-08-25T11:44:10.336Z,11.60
2022-08-25T11:46:53.367Z,11.90
2022-08-25T11:49:53.947Z,11.90
2022-08-25T11:52:34.693Z,11.70
2022-08-25T11:55:13.956Z,13.10
2022-08-25T11:57:45.122Z,11.60
2022-08-25T12:04:47.139Z,10.90
2022-08-25T12:07:20.499Z,12.20
2022-08-25T12:10:09.171Z,11.90
2022-08-25T12:12:38.825Z,12.70
2022-08-25T12:15:21.166Z,11.60
2022-08-25T12:18:16.759Z,11.40
2022-08-25T12:20:52.723Z,10.30
2022-08-25T12:23:30.359Z,10.90
2022-08-25T12:26:06.453Z,11.00
2022-08-25T12:28:41.950Z,9.70
2022-08-25T12:31:30.472Z,8.80
2022-08-25T12:34:19.091Z,9.80
2022-08-25T12:39:32.065Z,10.30
2022-08-25T12:42:06.767Z,9.30
2022-08-25T12:44:44.110Z,10.10
2022-08-25T12:47:27.318Z,9.90
2022-08-25T12:50:33.625Z,8.20
2022-08-25T12:53:16.082Z,8.40
2022-08-25T12:55:50.178Z,9.00
2022-08-25T12:58:18.212Z,8.50
2022-08-25T13:01:35.498Z,8.50
2022-08-25T13:04:19.727Z,7.50
2022-08-25T13:06:59.933Z,8.10
2022-08-25T13:09:50.810Z,7.60
2022-08-25T13:12:24.458Z,8.40
2022-08-25T13:14:54.775Z,7.40
2022-08-25T13:17:34.004Z,8.30
2022-08-25T13:20:23.542Z,8.10
2022-08-25T13:22:57.389Z,8.10
2022-08-25T13:25:37.072Z,7.60
2022-08-25T13:28:10.949Z,7.50
2022-08-25T13:30:40.042Z,7.50
2022-08-25T13:33:23.984Z,7.20
2022-08-25T13:36:14.313Z,7.30
2022-08-25T13:38:45.703Z,7.60
2022-08-25T13:41:23.693Z,7.00
2022-08-25T13:44:00.861Z,7.30
2022-08-25T13:46:30.789Z,7.40
2022-08-25T13:49:05.333Z,6.40
2022-08-25T13:51:34.971Z,6.50
2022-08-25T13:54:07.159Z,7.20
2022-08-25T13:56:40.947Z,6.70
2022-08-25T13:59:25.814Z,6.70
2022-08-25T14:01:55.342Z,7.10
2022-08-25T14:04:51.094Z,5.80
2022-08-25T14:07:25.553Z,6.30
2022-08-25T14:10:01.634Z,5.80
2022-08-25T14:12:47.743Z,6.20
2022-08-25T14:15:17.466Z,6.10
2022-08-25T14:18:00.640Z,5.60
2022-08-25T14:20:31.020Z,5.80
2022-08-25T14:23:12.929Z,6.10
2022-08-25T14:25:49.042Z,5.40
2022-08-25T14:28:21.769Z,5.60
2022-08-25T14:30:53.931Z,5.90
2022-08-25T14:33:25.332Z,5.40
2022-08-25T14:35:55.242Z,5.80
2022-08-25T14:38:23.360Z,5.40
2022-08-25T14:40:52.483Z,5.40
2022-08-25T14:43:24.006Z,5.90
2022-08-25T14:46:02.603Z,5.70
2022-08-25T14:48:37.238Z,6.00
2022-08-25T14:51:05.571Z,6.20
2022-08-25T14:53:33.967Z,5.80
2022-08-25T14:56:08.630Z,5.50
2022-08-25T14:58:48.541Z,6.40
2022-08-25T15:04:05.776Z,8.40
2022-08-25T15:06:36.620Z,7.90
2022-08-25T15:09:11.739Z,6.70
2022-08-25T15:11:45.434Z,6.40
2022-08-25T15:14:18.958Z,6.10
2022-08-25T15:16:57.898Z,5.90
2022-08-25T15:19:27.079Z,5.00
2022-08-25T15:21:57.779Z,5.40
2022-08-25T15:24:28.324Z,6.40
2022-08-25T15:26:58.747Z,5.70
2022-08-25T15:29:30.288Z,5.30
2022-08-25T15:32:00.419Z,5.50
2022-08-25T15:34:29.695Z,5.70
2022-08-25T15:36:58.957Z,6.30
2022-08-25T15:39:27.910Z,5.30
2022-08-25T15:41:57.136Z,6.00
2022-08-25T15:44:29.524Z,5.40
2022-08-25T15:46:59.228Z,5.30
2022-08-25T15:52:00.008Z,4.90
2022-08-25T15:54:29.024Z,5.70
2022-08-25T15:56:59.916Z,5.40
2022-08-25T15:59:28.727Z,5.20
2022-08-25T16:01:57.432Z,4.70
2022-08-25T16:04:27.589Z,5.80
2022-08-25T16:06:56.109Z,5.20
2022-08-25T16:09:24.351Z,6.40
2022-08-25T16:11:55.626Z,6.10
2022-08-25T16:14:27.722Z,5.20
2022-08-25T16:16:58.103Z,6.10
2022-08-25T16:19:30.054Z,5.20
2022-08-25T16:21:59.235Z,5.00
2022-08-25T16:24:28.394Z,5.50
2022-08-25T16:27:11.383Z,5.60
2022-08-25T16:29:42.964Z,7.30
2022-08-25T16:32:13.374Z,9.00
2022-08-25T16:37:11.084Z,8.10
2022-08-25T16:39:44.090Z,9.50
2022-08-25T16:42:12.894Z,7.70
2022-08-25T16:44:41.850Z,8.50
2022-08-25T16:47:09.892Z,8.70
2022-08-25T16:49:43.009Z,6.60
2022-08-25T16:52:30.243Z,7.10
2022-08-25T16:55:14.407Z,6.80
2022-08-25T16:57:48.787Z,6.60
2022-08-25T17:00:21.932Z,6.80
2022-08-25T17:02:54.289Z,6.50
2022-08-25T17:05:22.222Z,5.50
2022-08-25T17:08:09.366Z,7.00
2022-08-25T17:10:41.407Z,6.80
2022-08-25T17:13:11.809Z,5.80
2022-08-25T17:15:47.005Z,5.30
2022-08-25T17:18:15.540Z,5.80
2022-08-25T17:20:45.299Z,6.00
2022-08-25T17:23:13.372Z,5.70
2022-08-25T17:25:42.953Z,5.90
2022-08-25T17:28:12.808Z,6.60
2022-08-25T17:30:41.668Z,5.50
2022-08-25T17:33:09.628Z,6.20
2022-08-25T17:35:42.316Z,6.00
2022-08-25T17:38:11.202Z,5.90
2022-08-25T17:40:39.811Z,6.00
2022-08-25T17:43:09.125Z,5.80
2022-08-25T17:45:39.300Z,7.00
2022-08-25T17:48:09.189Z,6.30
2022-08-25T17:50:39.374Z,6.10
2022-08-25T17:53:13.543Z,6.70
2022-08-25T17:55:48.710Z,6.50
2022-08-25T17:58:18.886Z,6.60
2022-08-25T18:00:49.544Z,5.90
2022-08-25T18:03:27.240Z,6.70
2022-08-25T18:05:58.773Z,7.10
2022-08-25T18:08:32.248Z,6.40
2022-08-25T18:11:05.050Z,7.10
2022-08-25T18:13:33.265Z,6.90
2022-08-25T18:16:01.254Z,6.20
2022-08-25T18:18:31.819Z,5.80
2022-08-25T18:20:59.812Z,6.30
2022-08-25T18:23:27.996Z,8.00
2022-08-25T18:26:01.074Z,7.80
2022-08-25T18:28:30.179Z,7.70
2022-08-25T18:30:58.138Z,8.80
2022-08-25T18:33:26.361Z,8.60
2022-08-25T18:35:58.262Z,7.80
2022-08-25T18:38:52.645Z,8.10
2022-08-25T18:41:27.770Z,7.00
2022-08-25T18:43:57.978Z,7.80
2022-08-25T18:46:25.990Z,7.70
2022-08-25T18:48:55.769Z,8.40
2022-08-25T18:51:24.857Z,7.60
2022-08-25T18:53:54.572Z,7.90
2022-08-25T18:56:27.394Z,8.40
2022-08-25T18:58:55.791Z,7.80
2022-08-25T19:01:23.965Z,8.10
2022-08-25T19:03:52.367Z,8.70
2022-08-25T19:06:20.974Z,8.30
2022-08-25T19:08:49.152Z,8.70
2022-08-25T19:11:22.241Z,8.40
2022-08-25T19:13:52.035Z,7.50
2022-08-25T19:16:40.894Z,6.80
2022-08-25T19:19:14.919Z,7.70
2022-08-25T19:21:43.464Z,7.30
2022-08-25T19:24:13.523Z,7.10
2022-08-25T19:26:42.962Z,7.80
2022-08-25T19:29:17.570Z,8.40
2022-08-25T19:31:49.157Z,8.40
2022-08-25T19:34:25.372Z,8.90
2022-08-25T19:36:58.074Z,7.10
2022-08-25T19:39:27.430Z,8.10
2022-08-25T19:41:56.898Z,7.60
2022-08-25T19:44:27.129Z,6.90
2022-08-25T19:46:58.305Z,7.70
2022-08-25T19:49:31.484Z,7.20
2022-08-25T19:52:06.958Z,7.70
2022-08-25T19:54:45.767Z,8.00
2022-08-25T19:57:28.148Z,7.00
2022-08-25T20:00:17.781Z,6.90
2022-08-25T20:02:46.537Z,7.20
2022-08-25T20:05:15.820Z,7.20
2022-08-25T20:07:52.670Z,6.80
2022-08-25T20:10:22.105Z,7.50
2022-08-25T20:12:50.070Z,8.20
2022-08-25T20:15:18.580Z,7.10
2022-08-25T20:17:46.635Z,7.50
2022-08-25T20:20:19.011Z,6.70
2022-08-25T20:22:48.409Z,7.40
2022-08-25T20:25:26.634Z,7.00
2022-08-25T20:28:04.340Z,7.30
2022-08-25T20:30:32.703Z,8.00
2022-08-25T20:33:01.251Z,7.70
2022-08-25T20:35:29.407Z,7.40
2022-08-25T20:37:58.533Z,7.20
2022-08-25T20:40:28.130Z,6.60
2022-08-25T20:43:01.969Z,7.20
2022-08-25T20:45:31.146Z,6.60
2022-08-25T20:48:00.256Z,6.80
2022-08-25T20:50:28.275Z,7.60
2022-08-25T20:52:58.683Z,7.10
2022-08-25T20:55:27.982Z,7.00
2022-08-25T20:57:56.592Z,8.50
2022-08-25T21:00:25.927Z,7.60
2022-08-25T21:02:55.071Z,8.80
2022-08-25T21:05:23.181Z,7.30
2022-08-25T21:07:51.238Z,8.00
2022-08-25T21:10:19.225Z,7.90
2022-08-25T21:12:49.091Z,7.80
2022-08-25T21:15:21.299Z,7.80
2022-08-25T21:17:50.959Z,7.40
2022-08-25T21:20:18.909Z,7.00
2022-08-25T21:22:46.972Z,7.50
2022-08-25T21:25:15.143Z,8.10
2022-08-25T21:27:43.882Z,8.30
2022-08-25T21:30:12.800Z,7.80
2022-08-25T21:32:40.705Z,7.90
2022-08-25T21:35:23.214Z,7.50
2022-08-25T21:37:53.537Z,7.60
2022-08-25T21:40:22.871Z,7.90
2022-08-25T21:42:51.907Z,8.30
2022-08-25T21:45:21.691Z,8.00
2022-08-25T21:47:50.096Z,7.50
2022-08-25T21:50:20.819Z,6.90
2022-08-25T21:52:48.666Z,6.70
2022-08-25T21:55:23.517Z,7.00
2022-08-25T21:57:51.543Z,7.20
2022-08-25T22:00:21.372Z,7.30
2022-08-25T22:02:50.968Z,7.40
2022-08-25T22:05:18.909Z,7.00
2022-08-25T22:07:46.794Z,8.20
2022-08-25T22:10:17.975Z,7.20
2022-08-25T22:12:47.304Z,7.30
2022-08-25T22:15:18.917Z,7.60
2022-08-25T22:17:48.077Z,7.10
2022-08-25T22:20:18.209Z,7.00
2022-08-25T22:22:46.299Z,7.90
2022-08-25T22:25:14.435Z,7.30
2022-08-25T22:27:42.891Z,7.40
2022-08-25T22:30:11.840Z,7.40
2022-08-25T22:32:39.744Z,7.00
2022-08-25T22:35:08.991Z,7.10
2022-08-25T22:37:38.190Z,7.20
2022-08-25T22:40:08.594Z,6.50
2022-08-25T22:42:36.563Z,6.60
2022-08-25T22:45:04.819Z,5.50
2022-08-25T22:47:32.769Z,5.20
2022-08-25T22:50:00.954Z,5.20
2022-08-25T22:52:33.630Z,5.50
2022-08-25T22:55:03.252Z,6.60
2022-08-25T22:57:31.577Z,5.80
2022-08-25T22:59:59.496Z,5.70
2022-08-25T23:02:30.279Z,6.40
2022-08-25T23:04:58.484Z,5.90
2022-08-25T23:07:29.523Z,6.30
2022-08-25T23:10:03.300Z,5.40
2022-08-25T23:12:32.062Z,6.60
2022-08-25T23:15:00.690Z,6.50
2022-08-25T23:17:31.596Z,6.40
2022-08-25T23:19:59.520Z,6.40
2022-08-25T23:22:27.468Z,6.20
2022-08-25T23:24:56.391Z,6.40
2022-08-25T23:27:25.018Z,6.40
2022-08-25T23:29:52.971Z,6.40
2022-08-25T23:32:20.841Z,7.60
2022-08-25T23:34:48.879Z,6.70
2022-08-25T23:37:18.720Z,6.70
2022-08-25T23:39:49.364Z,8.50
2022-08-25T23:42:19.943Z,7.30
2022-08-25T23:44:48.953Z,6.30
2022-08-25T23:47:18.229Z,6.80
2022-08-25T23:49:48.048Z,7.10
2022-08-25T23:52:17.723Z,7.10
2022-08-25T23:54:46.211Z,8.00
2022-08-25T23:57:15.121Z,7.00
2022-08-25T23:59:43.854Z,7.00
